logo dgac
Lunes 22 de Abril del 2019
Buscar por aerodromo o helipuerto
Ingrese nombre de aeródromo, localidad o designador OACI:

Aeródromo: La Araucania (SCQP)

Ubicación: Freire, IX Región, Chile (38º 55' 33'' S, 72º 39' 05'' W) Ver ubicación en el mapa

Pistas

Orientación Dimensión Pendiente Superficie Resistencia APCH THR RWY PAPI
01/19 2440 x 45 0,10 ASFALTO 50/F/C/X/T
Horas de operación HJ
Elevación 321 FT (98m) ft
Otra Información Adm : DGAC
Uso : PUB
Ubicado a 20 Km al S de Temuco
Teléfonos : 452554926 ARO / 452554927 METEOROLOGÍA / 452554900 CENTRAL TELEFÓNICA.

Otra información ver AIP CHILE VOL I AD 3.9-6.1-F
CCCM/FCCV Descargar
andera de Chile
Mapa de La Araucania  (SCQP)

Último METAR

SPECI SCQP 221626Z 23003KT 200V010 9999 BKN008 OVC010 12/10 Q1018

Último TAF

TAF SCQP 221630Z 2218/2318 27005KT 9999 OVC010 TX13/2220Z TN06/2311Z BECMG 2218/2220 BKN015 BECMG 2223/2301 VRB03KT OVC012 BECMG 2312/2314 SCT012 OVC020 BECMG 2316/2318 27006KT BKN020

Últimas fotos cámaras

Imagen aerodromo La Araucania  (SCQP) Sur tomada el 22-04-2019 12:47:46 Imagen aerodromo La Araucania  (SCQP) Norte tomada el 22-04-2019 12:48:10

Último NOTAM

C1327/19 NOTAMN Q)SCTZ/QLIAS/IV/BO/A/000/999/3856S07239W005 A)SCQP B)1904221800 C)1904222100 E)RENL 01/19 U/S MAINT

LLegadas a La Araucania (SCQP)

En vuelo

Vuelo Procedencia Hora Despegue Local Hora Arribo Local

Salidas de La Araucania (SCQP)

En vuelo

Vuelo Hacia Hora Despegue Local Hora Arribo Local